createdAt,value
2019-05-17T00:01:07.655Z,21.37
2019-05-17T00:03:46.975Z,21.17
2019-05-17T00:06:13.336Z,23.67
2019-05-17T00:08:41.802Z,23.55
2019-05-17T00:11:10.290Z,19.80
2019-05-17T00:13:39.150Z,24.98
2019-05-17T00:16:09.650Z,22.80
2019-05-17T00:18:38.169Z,23.23
2019-05-17T00:21:07.773Z,23.47
2019-05-17T00:23:37.341Z,24.52
2019-05-17T00:26:03.735Z,23.47
2019-05-17T00:28:32.205Z,28.12
2019-05-17T00:31:00.685Z,24.00
2019-05-17T00:33:29.161Z,22.70
2019-05-17T00:35:57.664Z,28.55
2019-05-17T00:38:27.453Z,23.77
2019-05-17T00:40:56.461Z,24.77
2019-05-17T00:43:26.233Z,24.60
2019-05-17T00:45:57.503Z,24.07
2019-05-17T00:48:26.489Z,24.60
2019-05-17T00:50:54.616Z,24.85
2019-05-17T00:53:26.753Z,25.75
2019-05-17T00:55:53.515Z,27.67
2019-05-17T00:58:21.999Z,24.18
2019-05-17T01:00:51.891Z,26.87
2019-05-17T01:03:20.391Z,26.20
2019-05-17T01:05:48.898Z,23.12
2019-05-17T01:08:18.392Z,24.43
2019-05-17T01:10:47.404Z,23.40
2019-05-17T01:13:17.330Z,24.43
2019-05-17T01:15:47.397Z,22.30
2019-05-17T01:18:16.261Z,23.33
2019-05-17T01:20:43.868Z,22.95
2019-05-17T01:23:13.371Z,27.35
2019-05-17T01:25:42.144Z,26.62
2019-05-17T01:28:10.635Z,24.00
2019-05-17T01:30:39.214Z,25.52
2019-05-17T01:33:08.735Z,21.60
2019-05-17T01:35:41.260Z,24.13
2019-05-17T01:38:11.789Z,26.48
2019-05-17T01:40:41.292Z,22.60
2019-05-17T01:43:10.796Z,23.62
2019-05-17T01:45:39.296Z,26.27
2019-05-17T01:48:08.323Z,24.25
2019-05-17T01:50:38.169Z,22.22
2019-05-17T01:53:08.609Z,23.00
2019-05-17T01:55:37.672Z,23.87
2019-05-17T01:58:07.276Z,25.15
2019-05-17T02:00:39.363Z,23.85
2019-05-17T02:03:11.948Z,23.87
2019-05-17T02:05:42.386Z,23.30
2019-05-17T02:08:10.867Z,24.83
2019-05-17T02:10:39.349Z,22.77
2019-05-17T02:13:08.144Z,24.90
2019-05-17T02:15:37.738Z,23.90
2019-05-17T02:18:07.066Z,20.82
2019-05-17T02:20:36.962Z,26.85
2019-05-17T02:23:03.070Z,22.93
2019-05-17T02:25:31.871Z,23.40
2019-05-17T02:28:01.539Z,23.52
2019-05-17T02:30:28.868Z,22.50
2019-05-17T02:32:57.298Z,23.10
2019-05-17T02:35:26.137Z,23.92
2019-05-17T02:37:56.749Z,24.40
2019-05-17T02:40:25.525Z,23.07
2019-05-17T02:42:55.464Z,23.87
2019-05-17T02:45:25.521Z,23.92
2019-05-17T02:47:55.505Z,23.67
2019-05-17T02:50:25.520Z,21.85
2019-05-17T02:52:55.813Z,24.07
2019-05-17T02:55:25.667Z,23.98
2019-05-17T02:57:54.646Z,21.82
2019-05-17T03:00:24.297Z,24.05
2019-05-17T03:02:53.604Z,26.82
2019-05-17T03:05:23.329Z,25.43
2019-05-17T03:07:52.801Z,25.10
2019-05-17T03:10:28.092Z,26.07
2019-05-17T03:12:52.738Z,24.45
2019-05-17T03:15:23.097Z,25.90
2019-05-17T03:17:49.771Z,25.68
2019-05-17T03:20:18.288Z,27.40
2019-05-17T03:22:46.742Z,24.52
2019-05-17T03:25:16.293Z,26.35
2019-05-17T03:27:44.741Z,24.27
2019-05-17T03:30:16.909Z,24.50
2019-05-17T03:32:47.841Z,25.25
2019-05-17T03:35:16.405Z,22.20
2019-05-17T03:37:43.790Z,21.82
2019-05-17T03:40:24.831Z,23.70
2019-05-17T03:42:38.412Z,22.05
2019-05-17T03:45:06.922Z,24.12
2019-05-17T03:47:35.620Z,24.07
2019-05-17T03:50:04.081Z,26.15
2019-05-17T03:52:33.260Z,23.07
2019-05-17T03:55:03.859Z,23.42
2019-05-17T03:57:32.289Z,23.73
2019-05-17T03:59:59.021Z,22.95
2019-05-17T04:02:27.788Z,24.67
2019-05-17T04:04:56.457Z,23.57
2019-05-17T04:07:25.367Z,25.20
2019-05-17T04:09:53.795Z,21.25
2019-05-17T04:12:23.079Z,24.05
2019-05-17T04:14:53.399Z,24.43
2019-05-17T04:17:22.568Z,25.85
2019-05-17T04:19:47.708Z,23.70
2019-05-17T04:22:16.165Z,22.87
2019-05-17T04:24:44.948Z,22.87
2019-05-17T04:27:13.730Z,24.52
2019-05-17T04:29:42.532Z,23.90
2019-05-17T04:32:12.994Z,25.80
2019-05-17T04:34:39.190Z,24.67
2019-05-17T04:37:07.711Z,26.97
2019-05-17T04:39:37.198Z,32.05
2019-05-17T04:42:06.092Z,33.73
2019-05-17T04:44:34.826Z,28.60
2019-05-17T04:47:07.173Z,34.85
2019-05-17T04:49:35.644Z,28.30
2019-05-17T04:52:06.206Z,28.57
2019-05-17T04:54:34.917Z,29.37
2019-05-17T04:57:09.390Z,28.62
2019-05-17T04:59:37.843Z,30.08
2019-05-17T05:02:07.377Z,29.75
2019-05-17T05:04:38.429Z,30.13
2019-05-17T05:07:04.250Z,30.10
2019-05-17T05:09:32.708Z,38.45
2019-05-17T05:12:05.914Z,28.15
2019-05-17T05:14:32.800Z,30.52
2019-05-17T05:16:59.185Z,30.35
2019-05-17T05:19:29.753Z,31.42
2019-05-17T05:21:58.489Z,31.93
2019-05-17T05:24:27.226Z,34.83
2019-05-17T05:26:56.739Z,31.25
2019-05-17T05:29:25.159Z,31.35
2019-05-17T05:31:53.717Z,30.88
2019-05-17T05:34:22.280Z,31.73
2019-05-17T05:36:52.476Z,34.67
2019-05-17T05:39:22.705Z,32.17
2019-05-17T05:42:06.111Z,31.23
2019-05-17T05:44:21.547Z,30.40
2019-05-17T05:46:51.488Z,30.35
2019-05-17T05:49:18.261Z,30.15
2019-05-17T05:51:48.725Z,31.42
2019-05-17T05:54:17.160Z,28.87
2019-05-17T05:56:45.642Z,28.30
2019-05-17T05:59:22.311Z,27.50
2019-05-17T06:01:48.456Z,22.77
2019-05-17T06:04:22.348Z,25.45
2019-05-17T06:06:52.204Z,26.02
2019-05-17T06:09:19.545Z,26.27
2019-05-17T06:11:48.048Z,24.75
2019-05-17T06:14:17.534Z,23.62
2019-05-17T06:16:47.731Z,25.37
2019-05-17T06:19:15.519Z,22.27
2019-05-17T06:21:44.481Z,25.23
2019-05-17T06:24:16.050Z,28.87
2019-05-17T06:26:44.545Z,23.45
2019-05-17T06:29:14.060Z,22.93
2019-05-17T06:31:43.481Z,22.75
2019-05-17T06:34:11.699Z,20.17
2019-05-17T06:36:42.099Z,18.00
2019-05-17T06:39:11.589Z,20.62
2019-05-17T06:41:38.078Z,17.12
2019-05-17T06:44:07.510Z,16.90
2019-05-17T06:46:36.046Z,16.05
2019-05-17T06:49:04.471Z,16.30
2019-05-17T06:51:34.000Z,16.97
2019-05-17T06:54:02.454Z,20.17
2019-05-17T06:56:32.245Z,17.32
2019-05-17T06:59:01.469Z,20.32
2019-05-17T07:01:29.972Z,20.17
2019-05-17T07:04:00.265Z,16.12
2019-05-17T07:06:29.617Z,15.83
2019-05-17T07:08:57.575Z,15.95
2019-05-17T07:11:30.325Z,17.55
2019-05-17T07:13:59.728Z,16.20
2019-05-17T07:16:30.090Z,15.65
2019-05-17T07:18:59.844Z,13.75
2019-05-17T07:21:29.732Z,16.35
2019-05-17T07:24:04.423Z,16.35
2019-05-17T07:26:45.200Z,16.62
2019-05-17T07:29:13.719Z,14.90
2019-05-17T07:31:42.164Z,15.00
2019-05-17T07:34:11.705Z,14.50
2019-05-17T07:36:40.486Z,14.15
2019-05-17T07:39:12.065Z,14.73
2019-05-17T07:41:40.827Z,13.25
2019-05-17T07:44:09.926Z,12.25
2019-05-17T07:46:40.142Z,13.58
2019-05-17T07:49:10.788Z,15.50
2019-05-17T07:51:39.589Z,13.85
2019-05-17T07:54:06.614Z,18.55
2019-05-17T07:56:35.136Z,11.00
2019-05-17T07:59:03.581Z,12.47
2019-05-17T08:01:32.052Z,12.30
2019-05-17T08:04:00.910Z,13.05
2019-05-17T08:06:31.384Z,11.80
2019-05-17T08:09:03.956Z,13.55
2019-05-17T08:11:30.267Z,11.85
2019-05-17T08:13:57.154Z,12.58
2019-05-17T08:16:27.684Z,11.43
2019-05-17T08:18:57.231Z,10.23
2019-05-17T08:21:25.666Z,11.00
2019-05-17T08:23:56.115Z,11.48
2019-05-17T08:26:26.623Z,8.78
2019-05-17T08:28:57.057Z,11.30
2019-05-17T08:31:25.609Z,9.93
2019-05-17T08:33:54.024Z,8.15
2019-05-17T08:36:22.525Z,6.55
2019-05-17T08:38:51.006Z,6.40
2019-05-17T08:41:23.581Z,6.95
2019-05-17T08:43:53.076Z,7.20
2019-05-17T08:46:21.560Z,7.65
2019-05-17T08:48:53.191Z,7.72
2019-05-17T08:51:21.592Z,6.12
2019-05-17T08:53:50.071Z,7.22
2019-05-17T08:56:20.509Z,8.20
2019-05-17T08:58:49.812Z,6.45
2019-05-17T09:01:19.636Z,7.62
2019-05-17T09:03:50.439Z,6.00
2019-05-17T09:06:20.900Z,6.10
2019-05-17T09:08:49.991Z,5.17
2019-05-17T09:11:19.664Z,5.65
2019-05-17T09:13:58.059Z,4.65
2019-05-17T09:16:25.368Z,4.50
2019-05-17T09:18:54.889Z,5.72
2019-05-17T09:21:24.655Z,5.00
2019-05-17T09:23:55.126Z,3.87
2019-05-17T09:26:23.577Z,4.92
2019-05-17T09:28:52.074Z,5.15
2019-05-17T09:31:26.488Z,7.25
2019-05-17T09:33:56.400Z,5.30
2019-05-17T09:36:25.842Z,5.83
2019-05-17T09:38:54.320Z,6.17
2019-05-17T09:41:23.903Z,9.08
2019-05-17T09:43:53.327Z,4.95
2019-05-17T09:46:21.806Z,6.22
2019-05-17T09:48:50.679Z,7.65
2019-05-17T09:51:19.632Z,4.00
2019-05-17T09:53:49.587Z,5.55
2019-05-17T09:56:17.455Z,5.70
2019-05-17T09:58:45.954Z,5.08
2019-05-17T10:01:14.448Z,4.83
2019-05-17T10:03:50.538Z,6.35
2019-05-17T10:06:20.113Z,4.78
2019-05-17T10:08:49.477Z,4.28
2019-05-17T10:11:16.540Z,4.78
2019-05-17T10:13:44.941Z,5.78
2019-05-17T10:16:13.411Z,6.28
2019-05-17T10:18:41.901Z,4.35
2019-05-17T10:21:10.603Z,6.97
2019-05-17T10:23:40.664Z,4.20
2019-05-17T10:26:07.601Z,3.80
2019-05-17T10:28:36.128Z,4.12
2019-05-17T10:31:04.601Z,4.80
2019-05-17T10:33:33.094Z,4.37
2019-05-17T10:36:01.634Z,5.15
2019-05-17T10:38:30.148Z,4.22
2019-05-17T10:40:58.564Z,3.87
2019-05-17T10:43:27.051Z,5.92
2019-05-17T10:45:55.534Z,5.10
2019-05-17T10:48:24.027Z,4.62
2019-05-17T10:50:52.507Z,5.70
2019-05-17T10:53:20.970Z,4.83
2019-05-17T10:55:49.887Z,5.17
2019-05-17T10:58:21.023Z,3.75
2019-05-17T11:00:46.499Z,4.35
2019-05-17T11:03:16.946Z,3.87
2019-05-17T11:05:45.388Z,4.63
2019-05-17T11:08:14.108Z,4.00
2019-05-17T11:10:42.995Z,4.42
2019-05-17T11:13:11.498Z,4.83
2019-05-17T11:15:40.024Z,6.25
2019-05-17T11:18:11.534Z,3.90
2019-05-17T11:20:40.059Z,4.60
2019-05-17T11:23:17.629Z,4.28
2019-05-17T11:25:48.156Z,5.40
2019-05-17T11:28:16.628Z,3.47
2019-05-17T11:30:48.607Z,5.17
2019-05-17T11:33:19.101Z,3.70
2019-05-17T11:35:47.526Z,3.57
2019-05-17T11:38:16.009Z,4.27
2019-05-17T11:40:44.519Z,3.55
2019-05-17T11:43:13.049Z,3.37
2019-05-17T11:45:41.763Z,3.33
2019-05-17T11:48:17.093Z,4.72
2019-05-17T11:50:47.534Z,3.67
2019-05-17T11:53:19.167Z,4.47
2019-05-17T11:55:49.616Z,3.12
2019-05-17T11:58:18.128Z,4.57
2019-05-17T12:00:46.570Z,4.17
2019-05-17T12:03:17.499Z,3.95
2019-05-17T12:05:45.985Z,7.65
2019-05-17T12:08:14.668Z,4.60
2019-05-17T12:10:43.489Z,3.33
2019-05-17T12:13:11.989Z,3.50
2019-05-17T12:15:45.183Z,3.15
2019-05-17T12:18:08.950Z,2.98
2019-05-17T12:20:38.249Z,4.80
2019-05-17T12:23:06.692Z,2.90
2019-05-17T12:25:37.236Z,2.47
2019-05-17T12:28:07.819Z,4.07
2019-05-17T12:30:36.693Z,2.93
2019-05-17T12:33:05.235Z,7.83
2019-05-17T12:35:33.665Z,3.52
2019-05-17T12:38:02.601Z,3.67
2019-05-17T12:40:31.040Z,2.92
2019-05-17T12:42:59.539Z,2.55
2019-05-17T12:45:32.690Z,3.00
2019-05-17T12:48:03.216Z,3.52
2019-05-17T12:50:31.723Z,2.20
2019-05-17T12:53:00.183Z,3.00
2019-05-17T12:55:29.981Z,5.17
2019-05-17T12:57:58.460Z,5.08
2019-05-17T13:00:26.959Z,2.67
2019-05-17T13:02:56.543Z,6.37
2019-05-17T13:05:24.949Z,2.60
2019-05-17T13:07:54.074Z,3.52
2019-05-17T13:10:23.603Z,2.92
2019-05-17T13:12:52.043Z,3.33
2019-05-17T13:15:20.530Z,4.95
2019-05-17T13:17:49.007Z,4.05
2019-05-17T13:20:17.545Z,3.20
2019-05-17T13:22:46.109Z,2.80
2019-05-17T13:25:14.592Z,2.22
2019-05-17T13:27:43.035Z,5.20
2019-05-17T13:30:11.590Z,3.00
2019-05-17T13:32:40.120Z,3.02
2019-05-17T13:35:08.694Z,2.30
2019-05-17T13:37:37.191Z,2.98
2019-05-17T13:40:06.779Z,2.50
2019-05-17T13:42:36.310Z,2.37
2019-05-17T13:45:06.756Z,5.33
2019-05-17T13:47:35.609Z,3.07
2019-05-17T13:50:04.355Z,3.50
2019-05-17T13:52:32.791Z,3.98
2019-05-17T13:55:03.302Z,2.58
2019-05-17T13:57:32.823Z,2.97
2019-05-17T14:00:06.290Z,2.85
2019-05-17T14:02:37.511Z,2.62
2019-05-17T14:07:39.370Z,2.55
2019-05-17T14:10:24.593Z,2.00
2019-05-17T14:12:41.562Z,2.50
2019-05-17T14:15:09.912Z,2.90
2019-05-17T14:17:40.232Z,4.90
2019-05-17T14:20:10.298Z,4.90
2019-05-17T14:22:39.240Z,2.37
2019-05-17T14:25:08.445Z,2.12
2019-05-17T14:27:36.902Z,2.50
2019-05-17T14:30:05.521Z,2.17
2019-05-17T14:32:36.486Z,2.92
2019-05-17T14:35:22.690Z,2.42
2019-05-17T14:37:51.193Z,2.77
2019-05-17T14:40:22.513Z,2.00
2019-05-17T14:42:51.045Z,2.25
2019-05-17T14:45:21.535Z,3.77
2019-05-17T14:47:50.058Z,3.80
2019-05-17T14:50:25.696Z,4.40
2019-05-17T14:52:54.155Z,2.60
2019-05-17T14:55:29.914Z,3.33
2019-05-17T14:58:03.239Z,2.17
2019-05-17T15:00:31.792Z,3.37
2019-05-17T15:03:07.827Z,4.17
2019-05-17T15:05:55.433Z,4.42
2019-05-17T15:08:23.978Z,2.20
2019-05-17T15:10:52.432Z,3.15
2019-05-17T15:13:20.923Z,2.72
2019-05-17T15:15:50.443Z,2.70
2019-05-17T15:18:18.909Z,3.87
2019-05-17T15:20:48.463Z,6.42
2019-05-17T15:23:17.892Z,10.08
2019-05-17T15:25:46.415Z,2.52
2019-05-17T15:28:15.897Z,2.67
2019-05-17T15:30:44.656Z,5.08
2019-05-17T15:33:14.991Z,2.92
2019-05-17T15:35:44.437Z,3.63
2019-05-17T15:38:16.368Z,5.42
2019-05-17T15:40:44.895Z,5.10
2019-05-17T15:43:14.113Z,5.58
2019-05-17T15:45:42.565Z,5.22
2019-05-17T15:48:14.624Z,4.05
2019-05-17T15:50:43.824Z,3.40
2019-05-17T15:53:12.351Z,4.85
2019-05-17T15:55:40.781Z,4.70
2019-05-17T15:58:09.531Z,2.65
2019-05-17T16:00:38.050Z,3.50
2019-05-17T16:03:06.548Z,4.37
2019-05-17T16:05:35.242Z,2.87
2019-05-17T16:08:03.753Z,3.27
2019-05-17T16:10:40.076Z,2.95
2019-05-17T16:13:09.499Z,2.95
2019-05-17T16:15:38.290Z,2.77
2019-05-17T16:18:06.778Z,4.40
2019-05-17T16:20:37.381Z,8.18
2019-05-17T16:23:11.618Z,3.17
2019-05-17T16:25:41.139Z,2.95
2019-05-17T16:28:09.588Z,4.37
2019-05-17T16:30:38.419Z,4.20
2019-05-17T16:33:06.873Z,4.55
2019-05-17T16:35:35.280Z,3.12
2019-05-17T16:38:03.856Z,3.90
2019-05-17T16:40:32.343Z,5.85
2019-05-17T16:43:15.783Z,3.65
2019-05-17T16:45:31.840Z,3.47
2019-05-17T16:48:00.245Z,4.12
2019-05-17T16:50:29.751Z,13.30
2019-05-17T16:53:05.979Z,5.20
2019-05-17T16:55:26.999Z,8.45
2019-05-17T16:57:55.502Z,5.55
2019-05-17T17:00:28.046Z,4.83
2019-05-17T17:03:15.890Z,9.08
2019-05-17T17:05:45.301Z,6.85
2019-05-17T17:08:13.818Z,4.25
2019-05-17T17:10:42.375Z,3.37
2019-05-17T17:13:10.778Z,3.98
2019-05-17T17:15:39.244Z,6.78
2019-05-17T17:18:08.843Z,3.55
2019-05-17T17:20:37.318Z,4.17
2019-05-17T17:23:05.733Z,4.03
2019-05-17T17:25:34.195Z,4.15
2019-05-17T17:28:05.896Z,4.92
2019-05-17T17:30:31.453Z,5.42
2019-05-17T17:33:00.967Z,6.00
2019-05-17T17:35:30.854Z,4.08
2019-05-17T17:37:59.688Z,7.92
2019-05-17T17:40:28.197Z,4.40
2019-05-17T17:42:56.685Z,4.80
2019-05-17T17:45:25.176Z,3.85
2019-05-17T17:47:55.686Z,5.40
2019-05-17T17:50:24.176Z,5.40
2019-05-17T17:52:52.659Z,3.77
2019-05-17T17:55:22.161Z,4.45
2019-05-17T17:57:50.636Z,3.27
2019-05-17T18:00:19.110Z,3.70
2019-05-17T18:02:48.672Z,4.60
2019-05-17T18:05:17.109Z,4.90
2019-05-17T18:07:46.318Z,3.22
2019-05-17T18:10:22.593Z,5.37
2019-05-17T18:12:51.069Z,3.00
2019-05-17T18:15:20.824Z,3.85
2019-05-17T18:17:50.282Z,4.03
2019-05-17T18:20:22.738Z,4.83
2019-05-17T18:22:58.144Z,3.37
2019-05-17T18:25:26.574Z,3.35
2019-05-17T18:27:55.069Z,5.20
2019-05-17T18:30:23.931Z,2.65
2019-05-17T18:32:52.424Z,3.02
2019-05-17T18:35:45.735Z,2.12
2019-05-17T18:38:14.202Z,3.42
2019-05-17T18:40:42.687Z,2.77
2019-05-17T18:43:17.298Z,4.22
2019-05-17T18:45:47.431Z,4.35
2019-05-17T18:48:16.190Z,4.30
2019-05-17T18:50:44.694Z,2.55
2019-05-17T18:53:16.993Z,3.20
2019-05-17T18:55:42.049Z,5.12
2019-05-17T18:58:10.533Z,3.20
2019-05-17T19:00:43.033Z,5.40
2019-05-17T19:03:12.194Z,6.33
2019-05-17T19:05:40.609Z,2.92
2019-05-17T19:08:10.159Z,5.42
2019-05-17T19:10:40.225Z,5.37
2019-05-17T19:13:20.737Z,3.62
2019-05-17T19:15:50.199Z,4.67
2019-05-17T19:18:19.329Z,4.70
2019-05-17T19:20:49.819Z,5.72
2019-05-17T19:23:19.073Z,5.87
2019-05-17T19:25:47.508Z,3.55
2019-05-17T19:28:16.066Z,4.67
2019-05-17T19:30:44.462Z,6.83
2019-05-17T19:33:18.727Z,10.45
2019-05-17T19:35:54.986Z,5.90
2019-05-17T19:38:23.783Z,3.25
2019-05-17T19:40:52.264Z,4.10
2019-05-17T19:43:20.744Z,3.30
2019-05-17T19:45:49.433Z,3.02
2019-05-17T19:48:19.922Z,4.00
2019-05-17T19:50:47.920Z,4.53
2019-05-17T19:53:16.415Z,5.00
2019-05-17T19:55:45.900Z,4.20
2019-05-17T19:58:14.392Z,3.67
2019-05-17T20:00:42.954Z,3.83
2019-05-17T20:03:11.363Z,4.72
2019-05-17T20:05:45.804Z,3.80
2019-05-17T20:08:14.287Z,7.35
2019-05-17T20:10:42.852Z,7.33
2019-05-17T20:13:11.379Z,3.83
2019-05-17T20:15:41.885Z,5.08
2019-05-17T20:18:12.740Z,3.67
2019-05-17T20:20:44.646Z,4.90
2019-05-17T20:23:21.961Z,5.37
2019-05-17T20:25:54.031Z,5.92
2019-05-17T20:28:24.558Z,4.55
2019-05-17T20:30:57.893Z,5.70
2019-05-17T20:33:32.474Z,5.75
2019-05-17T20:36:01.033Z,7.75
2019-05-17T20:38:29.552Z,4.47
2019-05-17T20:40:58.071Z,4.70
2019-05-17T20:43:28.561Z,5.75
2019-05-17T20:45:57.046Z,10.10
2019-05-17T20:48:26.551Z,11.93
2019-05-17T20:50:55.051Z,11.73
2019-05-17T20:53:24.809Z,5.65
2019-05-17T20:55:53.626Z,5.90
2019-05-17T20:58:22.105Z,5.40
2019-05-17T21:00:50.601Z,8.68
2019-05-17T21:03:20.066Z,7.65
2019-05-17T21:05:50.348Z,7.83
2019-05-17T21:08:19.942Z,7.27
2019-05-17T21:10:48.423Z,6.65
2019-05-17T21:13:17.039Z,7.40
2019-05-17T21:15:47.754Z,6.95
2019-05-17T21:18:13.856Z,4.53
2019-05-17T21:20:42.469Z,5.83
2019-05-17T21:23:10.851Z,8.73
2019-05-17T21:25:39.395Z,5.70
2019-05-17T21:28:08.919Z,8.03
2019-05-17T21:30:37.824Z,5.42
2019-05-17T21:33:06.763Z,4.80
2019-05-17T21:35:35.266Z,6.75
2019-05-17T21:38:04.190Z,5.00
2019-05-17T21:40:33.704Z,10.20
2019-05-17T21:43:02.425Z,4.90
2019-05-17T21:45:31.911Z,6.53
2019-05-17T21:48:00.407Z,6.22
2019-05-17T21:50:28.891Z,5.12
2019-05-17T21:52:57.328Z,5.42
2019-05-17T21:55:25.850Z,5.33
2019-05-17T21:57:54.314Z,5.40
2019-05-17T22:00:35.968Z,7.17
2019-05-17T22:03:04.769Z,5.87
2019-05-17T22:05:33.277Z,5.65
2019-05-17T22:08:02.078Z,5.25
2019-05-17T22:10:31.286Z,9.40
2019-05-17T22:12:59.735Z,5.55
2019-05-17T22:15:29.284Z,5.50
2019-05-17T22:17:58.125Z,7.00
2019-05-17T22:20:30.030Z,5.72
2019-05-17T22:22:58.573Z,6.85
2019-05-17T22:25:30.049Z,6.33
2019-05-17T22:28:01.610Z,7.60
2019-05-17T22:30:30.081Z,6.85
2019-05-17T22:32:59.572Z,8.18
2019-05-17T22:35:28.377Z,6.47
2019-05-17T22:38:02.817Z,5.95
2019-05-17T22:40:33.291Z,7.92
2019-05-17T22:43:01.806Z,7.17
2019-05-17T22:45:30.325Z,6.45
2019-05-17T22:47:58.839Z,5.60
2019-05-17T22:50:27.289Z,6.10
2019-05-17T22:52:55.744Z,7.70
2019-05-17T22:55:26.589Z,6.47
2019-05-17T22:57:55.066Z,6.10
2019-05-17T23:00:25.720Z,5.92
2019-05-17T23:02:54.195Z,5.83
2019-05-17T23:05:26.530Z,6.28
2019-05-17T23:07:54.237Z,5.97
2019-05-17T23:10:27.250Z,6.28
2019-05-17T23:12:57.008Z,8.05
2019-05-17T23:15:28.158Z,7.80
2019-05-17T23:17:57.697Z,6.78
2019-05-17T23:20:27.204Z,7.62
2019-05-17T23:22:55.678Z,7.55
2019-05-17T23:25:24.190Z,7.00
2019-05-17T23:27:54.372Z,6.55
2019-05-17T23:30:23.610Z,7.45
2019-05-17T23:32:52.061Z,8.78
2019-05-17T23:35:20.574Z,7.33
2019-05-17T23:37:55.090Z,8.13
2019-05-17T23:40:23.919Z,6.40
2019-05-17T23:42:59.368Z,7.37
2019-05-17T23:45:27.843Z,5.92
2019-05-17T23:47:58.359Z,6.30
2019-05-17T23:50:34.607Z,7.03
2019-05-17T23:53:03.086Z,8.00
2019-05-17T23:55:31.559Z,8.60
2019-05-17T23:58:00.640Z,5.75
